createdAt,value
2018-09-03T00:01:14.283Z,99685.59
2018-09-03T00:03:43.011Z,99686.00
2018-09-03T00:06:11.742Z,99691.38
2018-09-03T00:08:40.494Z,99691.48
2018-09-03T00:11:09.234Z,99685.70
2018-09-03T00:13:37.969Z,99702.08
2018-09-03T00:16:06.702Z,99701.25
2018-09-03T00:18:35.444Z,99699.12
2018-09-03T00:21:04.122Z,99686.99
2018-09-03T00:23:32.811Z,99692.22
2018-09-03T00:26:01.487Z,99684.92
2018-09-03T00:28:30.310Z,99684.09
2018-09-03T00:33:05.806Z,99677.48
2018-09-03T00:35:39.579Z,99682.45
2018-09-03T00:38:13.526Z,99683.06
2018-09-03T00:40:47.229Z,99678.98
2018-09-03T00:43:20.974Z,99678.88
2018-09-03T00:45:54.958Z,99677.07
2018-09-03T00:48:23.691Z,99683.12
2018-09-03T00:50:52.443Z,99684.48
2018-09-03T00:53:21.128Z,99679.51
2018-09-03T00:55:49.941Z,99680.39
2018-09-03T00:58:18.713Z,99684.50
2018-09-03T01:00:47.521Z,99691.67
2018-09-03T01:03:16.287Z,99691.46
2018-09-03T01:05:45.048Z,99692.91
2018-09-03T01:08:13.887Z,99698.85
2018-09-03T01:10:42.674Z,99695.38
2018-09-03T01:13:11.571Z,99702.69
2018-09-03T01:15:40.458Z,99695.23
2018-09-03T01:18:09.231Z,99692.98
2018-09-03T01:20:38.022Z,99688.27
2018-09-03T01:23:06.767Z,99689.44
2018-09-03T01:25:35.449Z,99679.78
2018-09-03T01:28:04.181Z,99675.06
2018-09-03T01:30:32.918Z,99668.67
2018-09-03T01:33:01.641Z,99667.54
2018-09-03T01:35:30.489Z,99660.41
2018-09-03T01:37:59.289Z,99653.62
2018-09-03T01:40:27.981Z,99643.48
2018-09-03T01:42:56.697Z,99634.45
2018-09-03T01:45:25.457Z,99619.50
2018-09-03T01:47:54.248Z,99614.89
2018-09-03T01:50:22.992Z,99601.20
2018-09-03T01:52:51.775Z,99600.69
2018-09-03T01:55:20.511Z,99604.23
2018-09-03T01:57:49.272Z,99594.27
2018-09-03T02:00:18.042Z,99592.98
2018-09-03T02:02:46.768Z,99584.06
2018-09-03T02:05:15.517Z,99585.73
2018-09-03T02:07:44.333Z,99581.34
2018-09-03T02:10:13.089Z,99581.73
2018-09-03T02:12:41.814Z,99580.77
2018-09-03T02:15:10.576Z,99586.89
2018-09-03T02:17:39.274Z,99584.96
2018-09-03T02:20:08.043Z,99576.98
2018-09-03T02:22:36.726Z,99569.35
2018-09-03T02:25:05.760Z,99568.73
2018-09-03T02:27:34.474Z,99567.96
2018-09-03T02:30:03.176Z,99567.53
2018-09-03T02:32:31.861Z,99568.36
2018-09-03T02:35:00.580Z,99554.92
2018-09-03T02:37:29.355Z,99556.17
2018-09-03T02:39:58.083Z,99550.04
2018-09-03T02:42:26.830Z,99535.03
2018-09-03T02:44:55.612Z,99533.86
2018-09-03T02:47:24.354Z,99530.38
2018-09-03T02:49:54.054Z,99523.59
2018-09-03T02:52:23.111Z,99527.40
2018-09-03T02:54:51.874Z,99525.02
2018-09-03T02:57:20.594Z,99517.66
2018-09-03T02:59:49.410Z,99524.84
2018-09-03T03:02:18.081Z,99525.25
2018-09-03T03:04:46.771Z,99527.23
2018-09-03T03:07:15.476Z,99527.67
2018-09-03T03:09:44.640Z,99531.34
2018-09-03T03:12:17.455Z,99531.98
2018-09-03T03:14:46.251Z,99551.85
2018-09-03T03:17:15.082Z,99554.80
2018-09-03T03:19:43.813Z,99563.03
2018-09-03T03:22:12.554Z,99573.17
2018-09-03T03:24:41.269Z,99576.33
2018-09-03T03:27:09.976Z,99571.72
2018-09-03T03:29:38.761Z,99570.39
2018-09-03T03:32:07.534Z,99578.02
2018-09-03T03:34:36.257Z,99577.38
2018-09-03T03:37:04.981Z,99570.71
2018-09-03T03:39:33.679Z,99577.50
2018-09-03T03:42:02.409Z,99563.28
2018-09-03T03:44:31.185Z,99553.59
2018-09-03T03:47:00.040Z,99556.50
2018-09-03T03:49:28.767Z,99561.02
2018-09-03T03:51:57.570Z,99568.45
2018-09-03T03:54:26.368Z,99571.88
2018-09-03T03:56:55.110Z,99565.47
2018-09-03T03:59:23.878Z,99558.96
2018-09-03T04:01:52.654Z,99546.44
2018-09-03T04:04:21.434Z,99540.66
2018-09-03T04:06:50.195Z,99550.83
2018-09-03T04:09:18.931Z,99549.98
2018-09-03T04:11:47.667Z,99560.13
2018-09-03T04:14:16.411Z,99558.88
2018-09-03T04:16:45.146Z,99561.02
2018-09-03T04:19:13.933Z,99558.36
2018-09-03T04:21:42.692Z,99562.88
2018-09-03T04:24:11.434Z,99562.19
2018-09-03T04:26:40.196Z,99563.80
2018-09-03T04:29:08.936Z,99564.41
2018-09-03T04:31:37.693Z,99553.59
2018-09-03T04:34:06.564Z,99555.28
2018-09-03T04:36:35.306Z,99558.06
2018-09-03T04:39:04.893Z,99561.50
2018-09-03T04:41:33.652Z,99557.86
2018-09-03T04:44:02.504Z,99556.20
2018-09-03T04:46:31.331Z,99566.81
2018-09-03T04:49:00.062Z,99575.98
2018-09-03T04:51:28.827Z,99577.27
2018-09-03T04:53:57.635Z,99579.23
2018-09-03T04:56:26.406Z,99580.27
2018-09-03T04:58:55.086Z,99571.14
2018-09-03T05:01:23.915Z,99565.52
2018-09-03T05:03:52.774Z,99568.74
2018-09-03T05:06:21.511Z,99573.77
2018-09-03T05:08:50.255Z,99570.68
2018-09-03T05:11:19.034Z,99567.44
2018-09-03T05:13:47.789Z,99567.61
2018-09-03T05:16:16.485Z,99570.66
2018-09-03T05:18:45.229Z,99576.94
2018-09-03T05:21:13.892Z,99572.88
2018-09-03T05:23:42.571Z,99570.20
2018-09-03T05:26:11.381Z,99567.70
2018-09-03T05:28:40.049Z,99568.20
2018-09-03T05:31:08.763Z,99572.16
2018-09-03T05:33:37.526Z,99572.53
2018-09-03T05:36:07.100Z,99575.06
2018-09-03T05:38:35.802Z,99573.69
2018-09-03T05:41:04.501Z,99567.80
2018-09-03T05:43:33.544Z,99571.00
2018-09-03T05:46:02.180Z,99571.84
2018-09-03T05:48:30.882Z,99572.84
2018-09-03T05:50:59.578Z,99558.98
2018-09-03T05:53:29.197Z,99555.59
2018-09-03T05:55:57.988Z,99555.17
2018-09-03T05:58:26.730Z,99547.80
2018-09-03T06:00:55.492Z,99544.19
2018-09-03T06:03:24.368Z,99539.94
2018-09-03T06:05:53.143Z,99539.11
2018-09-03T06:08:21.957Z,99529.69
2018-09-03T06:10:50.753Z,99533.53
2018-09-03T06:13:19.445Z,99534.77
2018-09-03T06:15:48.239Z,99530.80
2018-09-03T06:18:16.970Z,99535.30
2018-09-03T06:20:45.863Z,99529.27
2018-09-03T06:23:14.597Z,99521.57
2018-09-03T06:25:43.285Z,99510.36
2018-09-03T06:28:12.060Z,99509.37
2018-09-03T06:30:40.737Z,99510.36
2018-09-03T06:33:09.456Z,99514.09
2018-09-03T06:35:38.134Z,99516.61
2018-09-03T06:38:07.054Z,99522.83
2018-09-03T06:40:35.710Z,99533.36
2018-09-03T06:43:04.453Z,99528.60
2018-09-03T06:45:33.198Z,99527.64
2018-09-03T06:48:01.983Z,99520.56
2018-09-03T06:50:30.753Z,99521.02
2018-09-03T06:52:59.478Z,99521.41
2018-09-03T06:55:28.275Z,99520.69
2018-09-03T06:57:56.941Z,99525.43
2018-09-03T07:00:25.680Z,99526.36
2018-09-03T07:02:54.491Z,99519.09
2018-09-03T07:05:23.242Z,99517.68
2018-09-03T07:07:52.010Z,99507.09
2018-09-03T07:10:20.693Z,99501.84
2018-09-03T07:12:49.403Z,99505.54
2018-09-03T07:15:18.191Z,99507.08
2018-09-03T07:17:46.885Z,99519.58
2018-09-03T07:20:15.650Z,99525.08
2018-09-03T07:22:44.374Z,99525.89
2018-09-03T07:25:13.077Z,99521.38
2018-09-03T07:27:41.784Z,99516.38
2018-09-03T07:30:10.676Z,99520.62
2018-09-03T07:32:39.493Z,99519.49
2018-09-03T07:35:08.251Z,99519.03
2018-09-03T07:37:37.047Z,99512.25
2018-09-03T07:40:06.367Z,99523.47
2018-09-03T07:42:35.088Z,99519.46
2018-09-03T07:45:03.781Z,99517.80
2018-09-03T07:47:32.494Z,99519.83
2018-09-03T07:50:01.244Z,99525.37
2018-09-03T07:52:30.001Z,99509.91
2018-09-03T07:54:58.730Z,99515.49
2018-09-03T07:57:27.797Z,99520.98
2018-09-03T07:59:56.518Z,99516.18
2018-09-03T08:02:25.331Z,99514.39
2018-09-03T08:04:54.078Z,99513.73
2018-09-03T08:07:22.904Z,99518.92
2018-09-03T08:09:51.660Z,99523.94
2018-09-03T08:12:20.509Z,99518.21
2018-09-03T08:14:49.248Z,99518.25
2018-09-03T08:17:18.143Z,99517.93
2018-09-03T08:19:46.883Z,99510.41
2018-09-03T08:22:16.358Z,99507.42
2018-09-03T08:24:45.147Z,99513.00
2018-09-03T08:27:13.863Z,99510.02
2018-09-03T08:29:42.574Z,99516.93
2018-09-03T08:32:11.306Z,99520.58
2018-09-03T08:34:40.018Z,99511.65
2018-09-03T08:37:08.678Z,99512.36
2018-09-03T08:39:37.380Z,99513.36
2018-09-03T08:42:06.268Z,99508.58
2018-09-03T08:44:34.998Z,99502.64
2018-09-03T08:47:03.706Z,99506.06
2018-09-03T08:49:32.422Z,99520.35
2018-09-03T08:52:01.144Z,99534.08
2018-09-03T08:54:29.867Z,99531.31
2018-09-03T08:56:58.563Z,99530.22
2018-09-03T08:59:27.405Z,99534.36
2018-09-03T09:01:56.264Z,99535.45
2018-09-03T09:04:25.086Z,99528.79
2018-09-03T09:06:53.899Z,99517.14
2018-09-03T09:09:22.680Z,99517.27
2018-09-03T09:11:51.515Z,99515.55
2018-09-03T09:14:20.251Z,99514.13
2018-09-03T09:16:48.988Z,99518.38
2018-09-03T09:19:22.987Z,99522.94
2018-09-03T09:21:51.750Z,99523.81
2018-09-03T09:24:20.569Z,99520.78
2018-09-03T09:26:49.249Z,99518.24
2018-09-03T09:29:18.004Z,99514.02
2018-09-03T09:31:46.794Z,99513.59
2018-09-03T09:34:15.626Z,99507.14
2018-09-03T09:36:44.639Z,99504.08
2018-09-03T09:39:13.384Z,99501.97
2018-09-03T09:41:42.154Z,99510.05
2018-09-03T09:44:10.989Z,99506.55
2018-09-03T09:46:39.682Z,99499.61
2018-09-03T09:49:08.333Z,99491.45
2018-09-03T09:51:37.122Z,99492.05
2018-09-03T09:54:05.956Z,99490.57
2018-09-03T09:56:34.715Z,99489.75
2018-09-03T09:59:03.443Z,99487.75
2018-09-03T10:01:35.087Z,99485.66
2018-09-03T10:04:04.020Z,99492.97
2018-09-03T10:06:32.802Z,99489.11
2018-09-03T10:09:01.508Z,99483.88
2018-09-03T10:11:30.462Z,99482.81
2018-09-03T10:13:59.434Z,99484.19
2018-09-03T10:16:28.169Z,99486.78
2018-09-03T10:18:56.884Z,99480.31
2018-09-03T10:21:25.627Z,99484.54
2018-09-03T10:23:54.313Z,99485.64
2018-09-03T10:26:23.127Z,99478.95
2018-09-03T10:28:51.857Z,99476.34
2018-09-03T10:31:20.634Z,99476.22
2018-09-03T10:33:49.401Z,99471.88
2018-09-03T10:36:18.147Z,99475.29
2018-09-03T10:38:46.889Z,99472.11
2018-09-03T10:41:15.646Z,99464.97
2018-09-03T10:43:44.398Z,99460.14
2018-09-03T10:46:13.187Z,99453.23
2018-09-03T10:48:41.899Z,99447.41
2018-09-03T10:51:10.598Z,99437.52
2018-09-03T10:53:39.383Z,99432.67
2018-09-03T10:56:08.108Z,99431.36
2018-09-03T10:58:36.852Z,99430.78
2018-09-03T11:01:05.613Z,99425.89
2018-09-03T11:03:34.437Z,99420.84
2018-09-03T11:06:03.123Z,99419.63
2018-09-03T11:08:31.790Z,99425.88
2018-09-03T11:11:00.474Z,99422.34
2018-09-03T11:13:29.300Z,99420.80
2018-09-03T11:15:58.039Z,99432.03
2018-09-03T11:18:28.460Z,99435.11
2018-09-03T11:20:57.330Z,99433.97
2018-09-03T11:23:26.064Z,99427.92
2018-09-03T11:25:54.814Z,99418.94
2018-09-03T11:28:23.634Z,99419.66
2018-09-03T11:30:52.444Z,99412.36
2018-09-03T11:33:21.182Z,99415.91
2018-09-03T11:35:49.944Z,99410.11
2018-09-03T11:38:18.701Z,99411.03
2018-09-03T11:40:47.465Z,99406.23
2018-09-03T11:43:16.251Z,99407.41
2018-09-03T11:45:44.968Z,99409.50
2018-09-03T11:48:13.720Z,99403.33
2018-09-03T11:50:42.466Z,99401.64
2018-09-03T11:53:12.639Z,99402.77
2018-09-03T11:55:41.348Z,99399.92
2018-09-03T11:58:10.062Z,99400.69
2018-09-03T12:00:38.922Z,99393.19
2018-09-03T12:03:07.614Z,99393.71
2018-09-03T12:05:37.013Z,99396.09
2018-09-03T12:08:05.835Z,99401.53
2018-09-03T12:10:34.547Z,99409.98
2018-09-03T12:13:03.281Z,99405.66
2018-09-03T12:15:35.251Z,99401.58
2018-09-03T12:18:03.960Z,99402.34
2018-09-03T12:20:33.185Z,99397.13
2018-09-03T12:23:02.115Z,99399.20
2018-09-03T12:25:30.896Z,99398.48
2018-09-03T12:27:59.564Z,99391.23
2018-09-03T12:30:28.257Z,99376.56
2018-09-03T12:32:56.996Z,99371.09
2018-09-03T12:35:25.706Z,99365.80
2018-09-03T12:37:54.432Z,99361.16
2018-09-03T12:40:23.166Z,99358.36
2018-09-03T12:42:51.912Z,99358.19
2018-09-03T12:45:24.693Z,99357.37
2018-09-03T12:47:53.465Z,99363.19
2018-09-03T12:50:22.170Z,99360.23
2018-09-03T12:52:51.019Z,99368.21
2018-09-03T12:55:19.752Z,99358.47
2018-09-03T12:57:48.652Z,99359.20
2018-09-03T13:00:20.491Z,99355.58
2018-09-03T13:02:49.714Z,99359.14
2018-09-03T13:05:19.472Z,99356.41
2018-09-03T13:07:48.303Z,99352.44
2018-09-03T13:10:16.990Z,99352.66
2018-09-03T13:12:46.088Z,99349.78
2018-09-03T13:15:14.992Z,99346.52
2018-09-03T13:17:43.788Z,99339.58
2018-09-03T13:20:12.965Z,99334.48
2018-09-03T13:22:41.796Z,99329.69
2018-09-03T13:25:10.488Z,99329.59
2018-09-03T13:27:39.177Z,99333.22
2018-09-03T13:30:08.823Z,99337.99
2018-09-03T13:32:37.522Z,99342.99
2018-09-03T13:35:06.409Z,99342.61
2018-09-03T13:37:35.278Z,99339.85
2018-09-03T13:40:04.107Z,99341.21
2018-09-03T13:42:32.973Z,99331.47
2018-09-03T13:45:01.554Z,99337.44
2018-09-03T13:47:30.285Z,99335.31
2018-09-03T13:49:59.004Z,99333.73
2018-09-03T13:52:27.679Z,99336.95
2018-09-03T13:54:56.474Z,99331.61
2018-09-03T13:57:25.234Z,99319.14
2018-09-03T13:59:53.998Z,99319.20
2018-09-03T14:02:22.735Z,99313.80
2018-09-03T14:04:51.552Z,99311.14
2018-09-03T14:07:20.366Z,99317.39
2018-09-03T14:09:49.325Z,99315.66
2018-09-03T14:12:18.161Z,99317.83
2018-09-03T14:14:46.854Z,99304.95
2018-09-03T14:17:15.612Z,99301.72
2018-09-03T14:19:44.346Z,99299.23
2018-09-03T14:22:13.072Z,99299.43
2018-09-03T14:24:41.895Z,99303.91
2018-09-03T14:27:10.606Z,99301.30
2018-09-03T14:29:39.311Z,99297.90
2018-09-03T14:32:08.021Z,99296.03
2018-09-03T14:34:36.755Z,99298.53
2018-09-03T14:37:05.503Z,99296.68
2018-09-03T14:39:35.213Z,99289.86
2018-09-03T14:42:03.899Z,99290.33
2018-09-03T14:44:32.576Z,99286.63
2018-09-03T14:47:01.325Z,99290.46
2018-09-03T14:49:30.058Z,99283.55
2018-09-03T14:51:58.826Z,99292.25
2018-09-03T14:54:27.594Z,99289.35
2018-09-03T14:56:56.564Z,99286.73
2018-09-03T14:59:25.416Z,99292.06
2018-09-03T15:01:54.127Z,99293.06
2018-09-03T15:04:22.910Z,99293.09
2018-09-03T15:06:51.626Z,99293.39
2018-09-03T15:09:20.458Z,99291.55
2018-09-03T15:11:49.263Z,99299.47
2018-09-03T15:14:17.949Z,99297.80
2018-09-03T15:16:46.760Z,99297.78
2018-09-03T15:19:15.529Z,99300.40
2018-09-03T15:21:44.295Z,99293.77
2018-09-03T15:24:13.203Z,99295.62
2018-09-03T15:26:41.991Z,99298.22
2018-09-03T15:29:10.735Z,99297.93
2018-09-03T15:31:39.605Z,99303.26
2018-09-03T15:34:08.375Z,99298.89
2018-09-03T15:36:37.227Z,99292.16
2018-09-03T15:39:09.172Z,99299.42
2018-09-03T15:41:37.939Z,99295.58
2018-09-03T15:44:06.827Z,99304.61
2018-09-03T15:46:35.525Z,99304.66
2018-09-03T15:49:04.371Z,99303.08
2018-09-03T15:51:33.087Z,99318.23
2018-09-03T15:54:02.237Z,99316.82
2018-09-03T15:56:31.001Z,99293.61
2018-09-03T15:58:59.816Z,99287.44
2018-09-03T16:01:28.542Z,99296.92
2018-09-03T16:03:57.354Z,99301.17
2018-09-03T16:06:26.137Z,99301.17
2018-09-03T16:08:55.130Z,99308.29
2018-09-03T16:11:24.910Z,99314.25
2018-09-03T16:13:53.666Z,99317.02
2018-09-03T16:16:22.432Z,99325.16
2018-09-03T16:18:51.240Z,99323.29
2018-09-03T16:21:20.041Z,99314.14
2018-09-03T16:23:48.831Z,99314.66
2018-09-03T16:26:18.515Z,99311.54
2018-09-03T16:28:47.217Z,99311.22
2018-09-03T16:31:15.928Z,99300.94
2018-09-03T16:33:44.667Z,99299.25
2018-09-03T16:36:13.430Z,99294.40
2018-09-03T16:38:42.468Z,99293.78
2018-09-03T16:41:11.113Z,99294.55
2018-09-03T16:43:39.830Z,99288.02
2018-09-03T16:46:08.586Z,99284.55
2018-09-03T16:48:37.293Z,99280.77
2018-09-03T16:51:06.383Z,99278.02
2018-09-03T16:53:35.384Z,99277.05
2018-09-03T16:56:04.205Z,99282.13
2018-09-03T16:58:32.963Z,99281.81
2018-09-03T17:01:01.728Z,99284.06
2018-09-03T17:03:30.471Z,99283.57
2018-09-03T17:05:59.240Z,99274.27
2018-09-03T17:08:27.941Z,99284.96
2018-09-03T17:10:56.687Z,99280.80
2018-09-03T17:13:25.574Z,99283.48
2018-09-03T17:15:54.278Z,99282.20
2018-09-03T17:18:22.963Z,99284.56
2018-09-03T17:20:51.693Z,99295.69
2018-09-03T17:23:20.396Z,99296.94
2018-09-03T17:25:49.167Z,99294.11
2018-09-03T17:28:18.542Z,99298.08
2018-09-03T17:30:47.274Z,99293.75
2018-09-03T17:33:16.109Z,99288.09
2018-09-03T17:35:44.891Z,99284.60
2018-09-03T17:38:13.607Z,99293.52
2018-09-03T17:40:42.463Z,99294.81
2018-09-03T17:43:16.769Z,99302.34
2018-09-03T17:45:45.492Z,99298.84
2018-09-03T17:48:14.385Z,99306.31
2018-09-03T17:50:43.681Z,99310.73
2018-09-03T17:53:12.534Z,99309.35
2018-09-03T17:55:41.230Z,99307.52
2018-09-03T17:58:09.917Z,99315.13
2018-09-03T18:00:38.632Z,99314.47
2018-09-03T18:03:08.083Z,99320.70
2018-09-03T18:05:37.761Z,99309.75
2018-09-03T18:08:06.579Z,99314.83
2018-09-03T18:10:35.201Z,99316.28
2018-09-03T18:13:04.281Z,99318.88
2018-09-03T18:15:33.021Z,99321.16
2018-09-03T18:18:01.739Z,99311.25
2018-09-03T18:20:30.378Z,99312.94
2018-09-03T18:22:59.684Z,99310.50
2018-09-03T18:25:28.298Z,99309.35
2018-09-03T18:27:56.961Z,99315.47
2018-09-03T18:30:27.955Z,99311.04
2018-09-03T18:32:56.723Z,99312.03
2018-09-03T18:35:25.743Z,99307.84
2018-09-03T18:37:54.484Z,99310.59
2018-09-03T18:40:23.170Z,99311.80
2018-09-03T18:42:52.105Z,99308.21
2018-09-03T18:45:20.793Z,99308.91
2018-09-03T18:47:49.653Z,99306.07
2018-09-03T18:50:18.402Z,99305.56
2018-09-03T18:52:47.137Z,99295.66
2018-09-03T18:55:16.051Z,99296.55
2018-09-03T18:57:44.795Z,99297.40
2018-09-03T19:00:14.508Z,99293.45
2018-09-03T19:02:43.183Z,99293.76
2018-09-03T19:05:12.053Z,99290.53
2018-09-03T19:07:41.039Z,99286.29
2018-09-03T19:10:10.846Z,99284.00
2018-09-03T19:12:39.858Z,99285.75
2018-09-03T19:15:08.978Z,99284.84
2018-09-03T19:17:37.726Z,99280.87
2018-09-03T19:20:06.479Z,99276.83
2018-09-03T19:22:35.158Z,99278.58
2018-09-03T19:25:04.111Z,99272.55
2018-09-03T19:27:32.839Z,99268.77
2018-09-03T19:30:01.569Z,99275.15
2018-09-03T19:32:30.254Z,99276.44
2018-09-03T19:34:58.924Z,99275.98
2018-09-03T19:37:27.707Z,99271.34
2018-09-03T19:39:56.443Z,99275.68
2018-09-03T19:42:25.555Z,99276.13
2018-09-03T19:44:54.203Z,99276.22
2018-09-03T19:47:22.933Z,99282.60
2018-09-03T19:49:51.678Z,99276.92
2018-09-03T19:52:20.596Z,99279.27
2018-09-03T19:54:49.288Z,99280.80
2018-09-03T19:57:18.270Z,99286.34
2018-09-03T19:59:47.041Z,99286.34
2018-09-03T20:02:15.732Z,99282.61
2018-09-03T20:04:44.410Z,99287.80
2018-09-03T20:07:13.183Z,99290.33
2018-09-03T20:09:41.851Z,99293.96
2018-09-03T20:12:10.638Z,99300.98
2018-09-03T20:14:39.726Z,99288.09
2018-09-03T20:17:08.402Z,99289.09
2018-09-03T20:19:37.023Z,99293.45
2018-09-03T20:22:10.500Z,99282.70
2018-09-03T20:24:39.286Z,99279.22
2018-09-03T20:27:08.365Z,99277.14
2018-09-03T20:29:37.078Z,99272.73
2018-09-03T20:32:05.787Z,99269.97
2018-09-03T20:34:34.400Z,99264.13
2018-09-03T20:37:03.030Z,99268.48
2018-09-03T20:39:31.696Z,99261.11
2018-09-03T20:42:00.351Z,99268.01
2018-09-03T20:44:28.997Z,99275.23
2018-09-03T20:46:57.686Z,99278.57
2018-09-03T20:49:27.120Z,99276.38
2018-09-03T20:51:57.040Z,99275.39
2018-09-03T20:54:25.915Z,99275.78
2018-09-03T20:56:54.751Z,99273.19
2018-09-03T20:59:23.941Z,99275.78
2018-09-03T21:01:52.848Z,99271.36
2018-09-03T21:04:21.866Z,99277.68
2018-09-03T21:06:50.823Z,99277.92
2018-09-03T21:09:19.966Z,99277.68
2018-09-03T21:11:49.656Z,99274.19
2018-09-03T21:14:18.751Z,99269.45
2018-09-03T21:16:47.571Z,99279.22
2018-09-03T21:19:16.468Z,99287.03
2018-09-03T21:21:45.382Z,99284.45
2018-09-03T21:24:14.603Z,99282.86
2018-09-03T21:26:43.527Z,99280.41
2018-09-03T21:29:12.495Z,99290.02
2018-09-03T21:31:41.589Z,99287.19
2018-09-03T21:34:15.515Z,99282.69
2018-09-03T21:36:44.892Z,99277.06
2018-09-03T21:39:14.040Z,99279.11
2018-09-03T21:41:42.815Z,99276.92
2018-09-03T21:44:11.784Z,99275.84
2018-09-03T21:46:41.260Z,99282.01
2018-09-03T21:49:10.523Z,99277.23
2018-09-03T21:51:39.433Z,99279.88
2018-09-03T21:54:09.379Z,99283.84
2018-09-03T21:56:38.377Z,99281.11
2018-09-03T21:59:07.434Z,99281.95
2018-09-03T22:01:36.162Z,99276.30
2018-09-03T22:04:05.663Z,99273.34
2018-09-03T22:06:34.521Z,99281.86
2018-09-03T22:09:04.942Z,99283.09
2018-09-03T22:11:34.084Z,99282.41
2018-09-03T22:14:02.879Z,99287.19
2018-09-03T22:16:31.994Z,99281.11
2018-09-03T22:19:00.981Z,99271.59
2018-09-03T22:21:30.040Z,99260.70
2018-09-03T22:23:58.860Z,99259.06
2018-09-03T22:26:27.847Z,99262.50
2018-09-03T22:28:56.734Z,99258.95
2018-09-03T22:31:25.543Z,99259.75
2018-09-03T22:33:54.673Z,99254.42
2018-09-03T22:36:23.355Z,99254.33
2018-09-03T22:38:52.148Z,99247.46
2018-09-03T22:41:20.834Z,99250.54
2018-09-03T22:43:49.863Z,99241.83
2018-09-03T22:46:18.820Z,99243.44
2018-09-03T22:48:47.566Z,99241.09
2018-09-03T22:51:16.312Z,99244.83
2018-09-03T22:53:45.079Z,99246.27
2018-09-03T22:56:13.873Z,99252.14
2018-09-03T22:58:42.625Z,99243.45
2018-09-03T23:01:11.336Z,99236.52
2018-09-03T23:03:40.171Z,99225.77
2018-09-03T23:06:08.964Z,99230.59
2018-09-03T23:08:37.755Z,99227.75
2018-09-03T23:11:06.549Z,99227.25
2018-09-03T23:13:35.311Z,99221.87
2018-09-03T23:16:04.155Z,99226.23
2018-09-03T23:18:32.913Z,99228.83
2018-09-03T23:21:01.728Z,99226.75
2018-09-03T23:23:30.511Z,99228.89
2018-09-03T23:25:59.288Z,99223.84
2018-09-03T23:28:28.066Z,99222.19
2018-09-03T23:30:56.806Z,99216.03
2018-09-03T23:33:25.556Z,99210.61
2018-09-03T23:35:54.331Z,99212.80
2018-09-03T23:38:23.535Z,99208.56
2018-09-03T23:40:52.471Z,99206.81
2018-09-03T23:43:21.170Z,99208.26
2018-09-03T23:45:49.844Z,99207.87
2018-09-03T23:48:18.527Z,99218.31
2018-09-03T23:50:47.252Z,99220.40
2018-09-03T23:53:16.029Z,99215.48
2018-09-03T23:55:44.782Z,99222.93
2018-09-03T23:58:13.497Z,99221.85
